createdAt,value
2024-02-22T00:01:12.244Z,5.56
2024-02-22T00:03:39.473Z,5.54
2024-02-22T00:06:06.666Z,5.61
2024-02-22T00:08:33.421Z,5.67
2024-02-22T00:11:00.380Z,5.73
2024-02-22T00:13:27.635Z,5.76
2024-02-22T00:15:54.417Z,5.81
2024-02-22T00:18:21.517Z,5.77
2024-02-22T00:20:48.501Z,5.79
2024-02-22T00:23:15.234Z,5.73
2024-02-22T00:25:42.026Z,5.79
2024-02-22T00:28:08.730Z,5.80
2024-02-22T00:30:35.491Z,5.89
2024-02-22T00:33:02.185Z,5.97
2024-02-22T00:35:30.042Z,5.90
2024-02-22T00:37:56.905Z,5.94
2024-02-22T00:40:23.798Z,6.08
2024-02-22T00:42:50.457Z,6.06
2024-02-22T00:45:17.326Z,5.86
2024-02-22T00:47:44.028Z,5.49
2024-02-22T00:50:11.023Z,5.67
2024-02-22T00:52:37.916Z,5.76
2024-02-22T00:55:05.068Z,5.75
2024-02-22T00:57:31.860Z,5.87
2024-02-22T00:59:58.604Z,6.00
2024-02-22T01:02:27.667Z,6.09
2024-02-22T01:04:54.823Z,6.15
2024-02-22T01:07:24.873Z,6.22
2024-02-22T01:09:51.530Z,6.34
2024-02-22T01:12:18.224Z,6.34
2024-02-22T01:14:44.925Z,6.24
2024-02-22T01:17:11.763Z,6.28
2024-02-22T01:19:38.620Z,6.37
2024-02-22T01:22:05.600Z,6.45
2024-02-22T01:24:32.984Z,6.49
2024-02-22T01:26:59.784Z,6.44
2024-02-22T01:29:27.818Z,6.34
2024-02-22T01:31:54.615Z,6.29
2024-02-22T01:34:21.458Z,6.09
2024-02-22T01:36:49.126Z,6.22
2024-02-22T01:39:16.107Z,6.38
2024-02-22T01:41:42.825Z,6.51
2024-02-22T01:44:09.735Z,6.62
2024-02-22T01:46:36.539Z,6.73
2024-02-22T01:49:04.096Z,6.75
2024-02-22T01:51:31.296Z,6.76
2024-02-22T01:53:58.572Z,6.73
2024-02-22T01:56:25.707Z,6.78
2024-02-22T01:58:53.633Z,6.75
2024-02-22T02:01:23.511Z,6.69
2024-02-22T02:03:54.427Z,6.59
2024-02-22T02:06:21.404Z,6.61
2024-02-22T02:08:49.017Z,6.54
2024-02-22T02:11:16.224Z,6.49
2024-02-22T02:13:43.025Z,6.51
2024-02-22T02:16:09.766Z,6.47
2024-02-22T02:18:36.586Z,6.43
2024-02-22T02:21:30.285Z,6.40
2024-02-22T02:24:12.129Z,6.06
2024-02-22T02:26:38.933Z,5.50
2024-02-22T02:29:05.732Z,5.49
2024-02-22T02:31:32.562Z,5.62
2024-02-22T02:33:59.340Z,5.75
2024-02-22T02:36:26.035Z,5.73
2024-02-22T02:38:52.732Z,5.75
2024-02-22T02:41:19.594Z,5.80
2024-02-22T02:43:46.378Z,5.85
2024-02-22T02:46:13.144Z,5.83
2024-02-22T02:48:40.005Z,5.87
2024-02-22T02:51:06.770Z,5.86
2024-02-22T02:53:33.467Z,5.83
2024-02-22T02:56:00.181Z,5.81
2024-02-22T02:58:27.009Z,5.77
2024-02-22T03:00:53.741Z,5.73
2024-02-22T03:03:20.459Z,5.67
2024-02-22T03:05:47.393Z,5.60
2024-02-22T03:08:14.271Z,5.56
2024-02-22T03:10:41.034Z,5.54
2024-02-22T03:13:09.633Z,5.54
2024-02-22T03:15:39.892Z,5.47
2024-02-22T03:18:10.428Z,5.25
2024-02-22T03:20:37.198Z,5.28
2024-02-22T03:23:04.158Z,5.16
2024-02-22T03:25:30.990Z,5.07
2024-02-22T03:28:00.315Z,5.14
2024-02-22T03:30:28.761Z,5.20
2024-02-22T03:32:55.965Z,5.29
2024-02-22T03:35:24.176Z,5.42
2024-02-22T03:37:51.877Z,5.55
2024-02-22T03:40:18.754Z,5.64
2024-02-22T03:42:45.830Z,5.67
2024-02-22T03:45:12.833Z,5.70
2024-02-22T03:47:39.768Z,5.71
2024-02-22T03:50:07.215Z,5.71
2024-02-22T03:52:33.934Z,5.71
2024-02-22T03:55:00.708Z,5.69
2024-02-22T03:57:27.387Z,5.67
2024-02-22T03:59:54.206Z,5.71
2024-02-22T04:02:21.492Z,5.73
2024-02-22T04:04:52.342Z,5.75
2024-02-22T04:07:19.349Z,5.79
2024-02-22T04:09:46.399Z,5.76
2024-02-22T04:12:13.231Z,5.73
2024-02-22T04:14:40.021Z,5.76
2024-02-22T04:17:06.874Z,5.78
2024-02-22T04:19:33.712Z,5.83
2024-02-22T04:22:00.573Z,5.85
2024-02-22T04:24:27.330Z,5.87
2024-02-22T04:26:54.066Z,5.85
2024-02-22T04:29:21.194Z,5.91
2024-02-22T04:31:48.656Z,5.99
2024-02-22T04:34:15.545Z,6.03
2024-02-22T04:36:42.896Z,5.91
2024-02-22T04:39:12.727Z,5.84
2024-02-22T04:41:40.084Z,5.87
2024-02-22T04:44:07.077Z,5.95
2024-02-22T04:46:36.840Z,6.05
2024-02-22T04:49:06.063Z,6.08
2024-02-22T04:51:34.155Z,5.92
2024-02-22T04:54:03.011Z,5.92
2024-02-22T04:56:30.025Z,5.98
2024-02-22T04:58:57.559Z,6.06
2024-02-22T05:01:26.046Z,6.13
2024-02-22T05:03:53.079Z,6.21
2024-02-22T05:06:20.223Z,6.29
2024-02-22T05:08:46.940Z,6.34
2024-02-22T05:11:13.839Z,6.33
2024-02-22T05:13:43.670Z,6.40
2024-02-22T05:16:10.425Z,6.39
2024-02-22T05:18:38.914Z,6.41
2024-02-22T05:21:06.276Z,6.46
2024-02-22T05:23:32.940Z,6.41
2024-02-22T05:25:59.705Z,6.42
2024-02-22T05:28:26.551Z,6.36
2024-02-22T05:30:53.538Z,6.32
2024-02-22T05:33:20.347Z,6.20
2024-02-22T05:35:47.696Z,6.19
2024-02-22T05:38:14.814Z,6.28
2024-02-22T05:40:42.779Z,6.33
2024-02-22T05:43:10.009Z,6.41
2024-02-22T05:45:45.984Z,6.43
2024-02-22T05:48:13.080Z,6.41
2024-02-22T05:50:39.848Z,6.43
2024-02-22T05:53:07.123Z,6.28
2024-02-22T05:55:33.939Z,6.33
2024-02-22T05:58:00.865Z,6.33
2024-02-22T06:00:27.630Z,6.34
2024-02-22T06:02:54.544Z,6.42
2024-02-22T06:05:21.498Z,6.51
2024-02-22T06:07:48.270Z,6.53
2024-02-22T06:10:15.112Z,6.54
2024-02-22T06:12:44.203Z,6.59
2024-02-22T06:15:11.441Z,6.61
2024-02-22T06:17:38.131Z,6.63
2024-02-22T06:20:07.356Z,6.56
2024-02-22T06:22:34.882Z,6.53
2024-02-22T06:25:01.798Z,6.50
2024-02-22T06:27:29.867Z,6.49
2024-02-22T06:29:56.991Z,6.45
2024-02-22T06:32:25.332Z,6.49
2024-02-22T06:34:52.615Z,6.53
2024-02-22T06:37:19.939Z,6.38
2024-02-22T06:39:46.835Z,6.24
2024-02-22T06:42:14.211Z,6.33
2024-02-22T06:44:40.897Z,6.41
2024-02-22T06:47:07.638Z,6.56
2024-02-22T06:49:34.674Z,6.65
2024-02-22T06:52:01.908Z,6.80
2024-02-22T06:54:29.443Z,6.89
2024-02-22T06:56:56.103Z,6.91
2024-02-22T06:59:22.924Z,6.83
2024-02-22T07:01:50.127Z,6.73
2024-02-22T07:04:17.366Z,6.78
2024-02-22T07:06:44.191Z,6.62
2024-02-22T07:09:12.879Z,6.65
2024-02-22T07:11:39.849Z,6.72
2024-02-22T07:14:07.034Z,6.66
2024-02-22T07:16:34.231Z,6.45
2024-02-22T07:19:01.285Z,6.52
2024-02-22T07:21:35.837Z,6.65
2024-02-22T07:24:05.188Z,6.67
2024-02-22T07:26:32.363Z,6.60
2024-02-22T07:29:02.298Z,6.74
2024-02-22T07:31:29.197Z,6.88
2024-02-22T07:33:56.011Z,6.96
2024-02-22T07:36:23.094Z,7.10
2024-02-22T07:38:49.765Z,7.14
2024-02-22T07:41:17.436Z,7.27
2024-02-22T07:43:45.442Z,7.31
2024-02-22T07:46:13.069Z,7.42
2024-02-22T07:48:40.844Z,7.50
2024-02-22T07:51:08.772Z,7.52
2024-02-22T07:53:36.466Z,7.54
2024-02-22T07:56:08.672Z,7.65
2024-02-22T07:58:53.825Z,7.75
2024-02-22T08:01:21.211Z,7.86
2024-02-22T08:03:49.772Z,7.97
2024-02-22T08:06:17.286Z,8.09
2024-02-22T08:08:44.364Z,8.20
2024-02-22T08:11:12.577Z,8.29
2024-02-22T08:13:39.731Z,8.31
2024-02-22T08:16:10.161Z,8.25
2024-02-22T08:18:38.398Z,8.30
2024-02-22T08:21:07.515Z,8.29
2024-02-22T08:23:34.649Z,8.29
2024-02-22T08:26:01.604Z,8.33
2024-02-22T08:28:29.837Z,8.41
2024-02-22T08:30:56.739Z,8.51
2024-02-22T08:33:27.389Z,8.59
2024-02-22T08:35:58.793Z,8.62
2024-02-22T08:38:27.371Z,8.63
2024-02-22T08:40:54.369Z,8.68
2024-02-22T08:43:21.268Z,8.75
2024-02-22T08:45:52.273Z,8.87
2024-02-22T08:48:19.342Z,9.00
2024-02-22T08:50:45.997Z,9.10
2024-02-22T08:53:12.868Z,9.22
2024-02-22T08:55:39.676Z,9.25
2024-02-22T08:58:06.546Z,9.20
2024-02-22T09:00:33.428Z,9.22
2024-02-22T09:03:00.192Z,9.16
2024-02-22T09:05:28.410Z,9.11
2024-02-22T09:07:55.616Z,9.08
2024-02-22T09:10:22.673Z,8.98
2024-02-22T09:12:49.373Z,9.06
2024-02-22T09:15:16.074Z,9.04
2024-02-22T09:17:42.885Z,9.11
2024-02-22T09:20:13.881Z,8.96
2024-02-22T09:22:42.472Z,8.94
2024-02-22T09:25:10.463Z,8.88
2024-02-22T09:27:37.783Z,8.95
2024-02-22T09:30:05.355Z,9.01
2024-02-22T09:32:32.438Z,9.11
2024-02-22T09:34:59.317Z,9.26
2024-02-22T09:37:28.407Z,9.46
2024-02-22T09:39:55.323Z,9.65
2024-02-22T09:42:29.035Z,9.96
2024-02-22T09:44:57.239Z,10.31
2024-02-22T09:47:24.389Z,10.46
2024-02-22T09:49:51.258Z,10.65
2024-02-22T09:52:21.403Z,10.46
2024-02-22T09:54:49.237Z,10.31
2024-02-22T09:57:16.204Z,10.36
2024-02-22T09:59:51.051Z,10.43
2024-02-22T10:02:19.096Z,10.48
2024-02-22T10:04:57.173Z,10.60
2024-02-22T10:07:37.190Z,10.72
2024-02-22T10:10:04.475Z,10.78
2024-02-22T10:12:35.312Z,10.96
2024-02-22T10:15:10.522Z,11.16
2024-02-22T10:17:38.263Z,11.36
2024-02-22T10:20:11.094Z,11.61
2024-02-22T10:22:39.130Z,11.86
2024-02-22T10:25:17.641Z,12.09
2024-02-22T10:27:51.345Z,12.27
2024-02-22T10:30:19.608Z,12.44
2024-02-22T10:32:48.681Z,12.49
2024-02-22T10:35:16.433Z,12.06
2024-02-22T10:37:44.234Z,11.11
2024-02-22T10:40:12.868Z,11.17
2024-02-22T10:42:40.678Z,11.44
2024-02-22T10:45:09.117Z,12.21
2024-02-22T10:47:37.950Z,13.13
2024-02-22T10:50:07.052Z,13.70
2024-02-22T10:52:42.022Z,14.11
2024-02-22T10:55:15.292Z,14.19
2024-02-22T10:57:51.880Z,14.45
2024-02-22T11:00:18.614Z,14.78
2024-02-22T11:02:46.890Z,14.91
2024-02-22T11:05:14.342Z,14.79
2024-02-22T11:07:59.198Z,14.80
2024-02-22T11:10:26.892Z,14.70
2024-02-22T11:12:53.629Z,14.28
2024-02-22T11:15:26.325Z,14.23
2024-02-22T11:17:59.001Z,14.14
2024-02-22T11:20:37.272Z,14.15
2024-02-22T11:23:14.471Z,13.88
2024-02-22T11:25:41.830Z,13.65
2024-02-22T11:28:09.977Z,13.55
2024-02-22T11:30:36.864Z,13.46
2024-02-22T11:33:03.815Z,13.44
2024-02-22T11:35:31.024Z,12.91
2024-02-22T11:38:05.955Z,12.85
2024-02-22T11:40:36.815Z,13.01
2024-02-22T11:43:04.633Z,12.85
2024-02-22T11:45:32.763Z,12.67
2024-02-22T11:48:00.143Z,12.80
2024-02-22T11:50:29.353Z,13.03
2024-02-22T11:52:57.011Z,13.22
2024-02-22T11:55:24.406Z,13.40
2024-02-22T11:57:51.113Z,13.52
2024-02-22T12:00:18.113Z,13.68
2024-02-22T12:02:45.261Z,13.79
2024-02-22T12:05:13.935Z,13.89
2024-02-22T12:07:41.613Z,13.97
2024-02-22T12:10:11.018Z,13.93
2024-02-22T12:12:40.701Z,13.90
2024-02-22T12:15:08.190Z,13.90
2024-02-22T12:17:35.833Z,13.91
2024-02-22T12:20:04.340Z,13.98
2024-02-22T12:22:35.738Z,14.19
2024-02-22T12:25:02.672Z,14.52
2024-02-22T12:27:29.797Z,14.78
2024-02-22T12:29:58.904Z,15.00
2024-02-22T12:32:26.018Z,15.11
2024-02-22T12:34:54.467Z,14.87
2024-02-22T12:37:21.771Z,14.66
2024-02-22T12:39:49.390Z,14.79
2024-02-22T12:42:16.364Z,14.67
2024-02-22T12:44:43.330Z,14.51
2024-02-22T12:47:13.385Z,14.18
2024-02-22T12:49:40.381Z,14.06
2024-02-22T12:52:07.763Z,13.94
2024-02-22T12:54:35.020Z,13.91
2024-02-22T12:57:01.751Z,14.04
2024-02-22T12:59:30.360Z,14.14
2024-02-22T13:01:57.190Z,14.23
2024-02-22T13:04:24.029Z,14.03
2024-02-22T13:06:50.718Z,13.82
2024-02-22T13:09:17.512Z,13.57
2024-02-22T13:11:44.511Z,13.48
2024-02-22T13:14:11.307Z,13.70
2024-02-22T13:16:38.401Z,13.90
2024-02-22T13:19:05.773Z,13.98
2024-02-22T13:21:32.651Z,13.87
2024-02-22T13:23:59.379Z,13.87
2024-02-22T13:26:26.294Z,13.96
2024-02-22T13:28:52.975Z,14.24
2024-02-22T13:31:21.080Z,14.68
2024-02-22T13:33:49.489Z,14.92
2024-02-22T13:36:16.633Z,15.18
2024-02-22T13:38:43.753Z,15.11
2024-02-22T13:41:13.618Z,14.87
2024-02-22T13:43:42.059Z,14.65
2024-02-22T13:46:08.859Z,14.37
2024-02-22T13:48:37.829Z,14.13
2024-02-22T13:51:06.097Z,13.98
2024-02-22T13:53:33.026Z,13.85
2024-02-22T13:55:59.842Z,13.89
2024-02-22T13:58:26.962Z,13.92
2024-02-22T14:00:53.701Z,13.91
2024-02-22T14:03:20.433Z,14.08
2024-02-22T14:05:52.315Z,13.82
2024-02-22T14:08:20.694Z,13.87
2024-02-22T14:10:47.576Z,13.81
2024-02-22T14:13:14.403Z,13.83
2024-02-22T14:15:41.818Z,13.67
2024-02-22T14:18:08.862Z,13.46
2024-02-22T14:20:36.500Z,13.62
2024-02-22T14:23:03.339Z,13.68
2024-02-22T14:25:30.290Z,13.60
2024-02-22T14:27:57.354Z,13.59
2024-02-22T14:30:24.048Z,13.40
2024-02-22T14:32:51.030Z,13.24
2024-02-22T14:35:19.511Z,13.26
2024-02-22T14:37:46.529Z,13.07
2024-02-22T14:40:13.340Z,13.15
2024-02-22T14:42:40.876Z,13.23
2024-02-22T14:45:07.925Z,13.23
2024-02-22T14:47:36.522Z,13.20
2024-02-22T14:50:05.608Z,13.38
2024-02-22T14:52:32.366Z,13.58
2024-02-22T14:54:59.189Z,13.69
2024-02-22T14:57:25.875Z,13.77
2024-02-22T14:59:52.679Z,13.88
2024-02-22T15:02:19.691Z,13.90
2024-02-22T15:04:46.990Z,13.99
2024-02-22T15:07:13.862Z,13.98
2024-02-22T15:09:42.554Z,13.95
2024-02-22T15:12:09.982Z,13.98
2024-02-22T15:14:39.437Z,13.76
2024-02-22T15:17:07.068Z,13.71
2024-02-22T15:19:35.630Z,13.60
2024-02-22T15:22:02.884Z,13.38
2024-02-22T15:24:29.900Z,13.24
2024-02-22T15:27:03.154Z,13.14
2024-02-22T15:29:29.870Z,12.96
2024-02-22T15:31:57.172Z,12.65
2024-02-22T15:34:25.458Z,12.39
2024-02-22T15:36:55.607Z,12.39
2024-02-22T15:39:23.102Z,12.23
2024-02-22T15:41:50.088Z,12.04
2024-02-22T15:44:17.367Z,12.04
2024-02-22T15:46:44.284Z,12.09
2024-02-22T15:49:16.049Z,11.89
2024-02-22T15:51:43.549Z,11.83
2024-02-22T15:54:11.822Z,11.43
2024-02-22T15:56:38.588Z,11.65
2024-02-22T15:59:05.413Z,11.68
2024-02-22T16:01:32.211Z,11.76
2024-02-22T16:04:00.173Z,11.79
2024-02-22T16:06:27.020Z,11.73
2024-02-22T16:08:56.717Z,11.61
2024-02-22T16:11:23.608Z,11.60
2024-02-22T16:13:50.408Z,11.63
2024-02-22T16:16:18.258Z,11.60
2024-02-22T16:18:45.738Z,11.43
2024-02-22T16:21:13.186Z,10.98
2024-02-22T16:23:40.068Z,10.74
2024-02-22T16:26:06.833Z,10.58
2024-02-22T16:28:33.559Z,10.26
2024-02-22T16:31:00.771Z,10.31
2024-02-22T16:33:31.427Z,10.06
2024-02-22T16:36:07.060Z,10.04
2024-02-22T16:38:42.871Z,10.19
2024-02-22T16:41:26.758Z,9.96
2024-02-22T16:43:54.617Z,9.87
2024-02-22T16:46:21.594Z,9.69
2024-02-22T16:48:51.498Z,9.66
2024-02-22T16:51:19.966Z,9.79
2024-02-22T16:53:49.744Z,9.83
2024-02-22T16:56:17.450Z,9.86
2024-02-22T16:58:44.383Z,10.02
2024-02-22T17:01:11.261Z,10.11
2024-02-22T17:03:38.111Z,10.17
2024-02-22T17:06:05.279Z,10.22
2024-02-22T17:08:32.429Z,10.26
2024-02-22T17:10:59.328Z,10.24
2024-02-22T17:13:26.156Z,10.20
2024-02-22T17:15:56.170Z,10.24
2024-02-22T17:18:23.469Z,10.30
2024-02-22T17:20:50.137Z,10.32
2024-02-22T17:23:17.192Z,10.33
2024-02-22T17:25:44.024Z,10.26
2024-02-22T17:28:11.123Z,10.24
2024-02-22T17:30:37.728Z,10.22
2024-02-22T17:33:04.756Z,10.20
2024-02-22T17:35:31.459Z,10.20
2024-02-22T17:37:58.213Z,10.16
2024-02-22T17:40:25.041Z,10.12
2024-02-22T17:42:52.036Z,10.00
2024-02-22T17:45:18.702Z,9.95
2024-02-22T17:47:45.471Z,9.86
2024-02-22T17:50:12.320Z,9.88
2024-02-22T17:52:39.230Z,9.92
2024-02-22T17:55:11.216Z,9.79
2024-02-22T17:57:38.235Z,9.73
2024-02-22T18:00:06.697Z,9.73
2024-02-22T18:02:33.857Z,9.75
2024-02-22T18:05:00.788Z,9.71
2024-02-22T18:07:27.581Z,9.65
2024-02-22T18:09:54.345Z,9.58
2024-02-22T18:12:24.807Z,9.46
2024-02-22T18:14:52.562Z,9.37
2024-02-22T18:17:19.439Z,9.24
2024-02-22T18:19:46.193Z,9.22
2024-02-22T18:22:12.916Z,9.29
2024-02-22T18:24:43.867Z,9.34
2024-02-22T18:27:10.868Z,9.42
2024-02-22T18:29:39.516Z,9.48
2024-02-22T18:32:07.193Z,9.54
2024-02-22T18:34:34.244Z,9.53
2024-02-22T18:37:03.617Z,9.51
2024-02-22T18:39:31.345Z,9.53
2024-02-22T18:41:58.361Z,9.53
2024-02-22T18:44:25.350Z,9.50
2024-02-22T18:46:52.266Z,9.48
2024-02-22T18:49:19.067Z,9.42
2024-02-22T18:51:45.823Z,9.41
2024-02-22T18:54:12.539Z,9.44
2024-02-22T18:56:40.115Z,9.46
2024-02-22T18:59:06.931Z,9.48
2024-02-22T19:01:34.078Z,9.47
2024-02-22T19:04:01.107Z,9.48
2024-02-22T19:06:28.039Z,9.41
2024-02-22T19:08:54.922Z,9.37
2024-02-22T19:11:26.008Z,9.20
2024-02-22T19:13:53.388Z,9.16
2024-02-22T19:16:20.167Z,9.14
2024-02-22T19:18:47.004Z,9.14
2024-02-22T19:21:14.662Z,9.13
2024-02-22T19:23:42.391Z,9.14
2024-02-22T19:26:09.889Z,9.14
2024-02-22T19:28:36.600Z,9.11
2024-02-22T19:31:04.463Z,9.08
2024-02-22T19:33:31.313Z,8.84
2024-02-22T19:35:58.025Z,8.81
2024-02-22T19:38:25.365Z,8.78
2024-02-22T19:40:52.598Z,8.72
2024-02-22T19:43:20.349Z,8.72
2024-02-22T19:45:47.272Z,8.71
2024-02-22T19:48:14.058Z,8.71
2024-02-22T19:50:42.596Z,8.70
2024-02-22T19:53:09.840Z,8.65
2024-02-22T19:55:36.698Z,8.67
2024-02-22T19:58:05.116Z,8.60
2024-02-22T20:00:34.715Z,8.59
2024-02-22T20:03:01.495Z,8.61
2024-02-22T20:05:28.281Z,8.61
2024-02-22T20:07:55.389Z,8.60
2024-02-22T20:10:22.460Z,8.43
2024-02-22T20:12:49.800Z,8.36
2024-02-22T20:15:16.561Z,8.33
2024-02-22T20:17:44.672Z,8.29
2024-02-22T20:20:12.703Z,8.26
2024-02-22T20:22:39.718Z,8.27
2024-02-22T20:25:09.889Z,8.34
2024-02-22T20:27:36.661Z,8.42
2024-02-22T20:30:09.940Z,8.34
2024-02-22T20:32:37.253Z,8.32
2024-02-22T20:35:10.030Z,8.28
2024-02-22T20:37:42.842Z,8.22
2024-02-22T20:40:10.238Z,8.22
2024-02-22T20:42:36.913Z,8.24
2024-02-22T20:45:04.015Z,8.17
2024-02-22T20:47:32.736Z,8.09
2024-02-22T20:49:59.713Z,8.11
2024-02-22T20:52:26.539Z,8.17
2024-02-22T20:54:53.231Z,8.16
2024-02-22T20:57:20.120Z,8.14
2024-02-22T20:59:46.934Z,8.17
2024-02-22T21:02:13.830Z,8.06
2024-02-22T21:04:40.747Z,7.91
2024-02-22T21:07:07.674Z,7.94
2024-02-22T21:09:34.349Z,7.87
2024-02-22T21:12:04.033Z,7.90
2024-02-22T21:14:31.096Z,7.85
2024-02-22T21:16:57.901Z,7.91
2024-02-22T21:19:24.620Z,8.00
2024-02-22T21:21:51.349Z,8.05
2024-02-22T21:24:18.267Z,8.11
2024-02-22T21:26:45.005Z,8.13
2024-02-22T21:29:12.761Z,8.09
2024-02-22T21:31:39.503Z,8.13
2024-02-22T21:34:07.289Z,8.15
2024-02-22T21:36:34.509Z,8.09
2024-02-22T21:39:06.785Z,7.87
2024-02-22T21:41:36.581Z,7.72
2024-02-22T21:44:03.738Z,7.74
2024-02-22T21:46:30.652Z,7.73
2024-02-22T21:48:57.569Z,7.49
2024-02-22T21:51:24.298Z,7.12
2024-02-22T21:53:51.101Z,7.27
2024-02-22T21:56:17.888Z,7.47
2024-02-22T21:58:44.755Z,7.51
2024-02-22T22:01:11.649Z,7.46
2024-02-22T22:03:38.429Z,7.53
2024-02-22T22:06:05.473Z,7.62
2024-02-22T22:08:33.226Z,7.65
2024-02-22T22:11:00.176Z,7.72
2024-02-22T22:13:26.993Z,7.75
2024-02-22T22:15:53.671Z,7.72
2024-02-22T22:18:20.486Z,7.75
2024-02-22T22:20:47.202Z,7.73
2024-02-22T22:23:14.403Z,7.71
2024-02-22T22:25:41.414Z,7.46
2024-02-22T22:28:08.132Z,7.32
2024-02-22T22:30:35.997Z,7.41
2024-02-22T22:33:03.358Z,7.41
2024-02-22T22:35:30.183Z,7.37
2024-02-22T22:37:56.914Z,7.04
2024-02-22T22:40:23.662Z,6.99
2024-02-22T22:42:50.341Z,6.99
2024-02-22T22:45:18.892Z,7.06
2024-02-22T22:47:46.505Z,7.12
2024-02-22T22:50:13.926Z,7.26
2024-02-22T22:52:40.818Z,7.32
2024-02-22T22:55:08.162Z,7.31
2024-02-22T22:57:34.926Z,7.30
2024-02-22T23:00:08.068Z,7.19
2024-02-22T23:02:34.868Z,6.94
2024-02-22T23:05:01.848Z,7.21
2024-02-22T23:07:28.627Z,7.35
2024-02-22T23:09:55.282Z,7.22
2024-02-22T23:12:22.198Z,7.33
2024-02-22T23:14:48.967Z,7.22
2024-02-22T23:17:15.650Z,7.25
2024-02-22T23:19:42.394Z,7.30
2024-02-22T23:22:09.106Z,7.36
2024-02-22T23:24:35.831Z,7.43
2024-02-22T23:27:02.491Z,7.49
2024-02-22T23:29:29.308Z,7.58
2024-02-22T23:31:56.011Z,7.57
2024-02-22T23:34:22.912Z,7.67
2024-02-22T23:36:49.677Z,7.65
2024-02-22T23:39:17.259Z,7.60
2024-02-22T23:41:44.014Z,7.51
2024-02-22T23:44:11.444Z,7.53
2024-02-22T23:46:38.597Z,7.47
2024-02-22T23:49:05.533Z,7.45
2024-02-22T23:51:32.272Z,7.47
2024-02-22T23:54:01.374Z,7.48
2024-02-22T23:56:28.284Z,7.47
2024-02-22T23:58:55.058Z,7.54
